Terminal Aerodrome Forecast
Issued by NWS

Home | Current Version | Previous Version | Text Only | Print | Product List | Glossary On
Versions: 1 2 3 4 5 6 7 8 9 10 11 12 13 14 15 16 17 18 19 20 21 22 23 24 25 26 27
000
FTUS41 KBUF 231500 AAA
TAFIAG
TAF AMD
KIAG 231500Z 2315/2412 22011G20KT P6SM SCT021 OVC030
     FM231800 20012KT P6SM VCSH OVC045
     FM232100 19010KT P6SM OVC045
     FM240200 15009KT P6SM OVC100 WS020/18040KT
     FM240600 15011KT P6SM -RA OVC040 WS020/17045KT
     FM241000 16016G23KT 6SM -RA OVC035=

USA.gov is the U.S. government's official web portal to all federal, state and local government web resources and services.